createdAt,value
2018-03-28T00:01:07.488Z,2.30
2018-03-28T00:03:34.636Z,2.43
2018-03-28T00:06:03.110Z,2.63
2018-03-28T00:08:30.323Z,2.30
2018-03-28T00:10:57.478Z,2.60
2018-03-28T00:13:24.852Z,2.60
2018-03-28T00:15:52.079Z,2.20
2018-03-28T00:18:19.316Z,2.63
2018-03-28T00:20:46.464Z,2.47
2018-03-28T00:23:13.583Z,2.60
2018-03-28T00:25:40.824Z,2.83
2018-03-28T00:28:07.970Z,2.50
2018-03-28T00:30:35.130Z,2.40
2018-03-28T00:33:02.369Z,2.37
2018-03-28T00:35:29.521Z,2.27
2018-03-28T00:37:56.631Z,2.80
2018-03-28T00:40:23.816Z,2.70
2018-03-28T00:42:51.038Z,2.63
2018-03-28T00:45:18.196Z,2.63
2018-03-28T00:47:45.336Z,2.47
2018-03-28T00:50:12.494Z,2.50
2018-03-28T00:52:39.647Z,2.40
2018-03-28T00:55:06.801Z,2.50
2018-03-28T00:57:34.048Z,2.50
2018-03-28T01:00:01.199Z,2.20
2018-03-28T01:02:28.339Z,2.50
2018-03-28T01:04:55.475Z,2.40
2018-03-28T01:07:22.615Z,2.70
2018-03-28T01:09:49.739Z,2.87
2018-03-28T01:12:16.901Z,2.50
2018-03-28T01:14:44.050Z,2.20
2018-03-28T01:17:11.201Z,2.40
2018-03-28T01:19:38.335Z,2.20
2018-03-28T01:22:05.755Z,2.30
2018-03-28T01:24:32.879Z,2.30
2018-03-28T01:27:00.199Z,2.77
2018-03-28T01:29:27.348Z,2.50
2018-03-28T01:31:54.492Z,2.33
2018-03-28T01:34:21.639Z,2.70
2018-03-28T01:36:48.793Z,2.60
2018-03-28T01:39:15.929Z,2.17
2018-03-28T01:41:43.067Z,2.20
2018-03-28T01:44:10.301Z,2.43
2018-03-28T01:46:37.442Z,2.27
2018-03-28T01:49:04.707Z,2.30
2018-03-28T01:51:31.857Z,2.33
2018-03-28T01:53:59.935Z,2.33
2018-03-28T01:56:27.829Z,2.47
2018-03-28T01:58:54.969Z,2.70
2018-03-28T02:01:22.225Z,2.40
2018-03-28T02:03:49.366Z,2.30
2018-03-28T02:06:16.316Z,2.40
2018-03-28T02:08:43.460Z,2.23
2018-03-28T02:11:10.676Z,2.20
2018-03-28T02:13:38.687Z,2.30
2018-03-28T02:16:05.842Z,2.40
2018-03-28T02:18:40.365Z,1.87
2018-03-28T02:21:08.507Z,2.40
2018-03-28T02:23:36.378Z,2.00
2018-03-28T02:26:03.790Z,2.43
2018-03-28T02:28:30.878Z,2.33
2018-03-28T02:30:58.744Z,2.00
2018-03-28T02:33:26.613Z,2.10
2018-03-28T02:35:53.677Z,2.30
2018-03-28T02:38:20.773Z,2.23
2018-03-28T02:40:47.858Z,2.30
2018-03-28T02:43:14.955Z,2.10
2018-03-28T02:45:42.062Z,2.30
2018-03-28T02:48:09.260Z,2.43
2018-03-28T02:50:37.104Z,2.10
2018-03-28T02:53:04.510Z,2.20
2018-03-28T02:55:31.603Z,2.37
2018-03-28T02:57:59.545Z,2.00
2018-03-28T03:00:26.767Z,2.30
2018-03-28T03:02:54.103Z,2.10
2018-03-28T03:05:22.066Z,2.10
2018-03-28T03:07:49.161Z,2.43
2018-03-28T03:10:16.264Z,2.40
2018-03-28T03:12:43.338Z,2.37
2018-03-28T03:15:10.422Z,2.90
2018-03-28T03:17:37.522Z,2.10
2018-03-28T03:20:04.632Z,2.30
2018-03-28T03:22:31.742Z,2.23
2018-03-28T03:24:59.640Z,2.23
2018-03-28T03:27:27.496Z,2.23
2018-03-28T03:29:55.376Z,2.10
2018-03-28T03:32:22.546Z,2.20
2018-03-28T03:34:49.628Z,2.10
2018-03-28T03:37:17.465Z,1.83
2018-03-28T03:39:44.573Z,2.33
2018-03-28T03:42:11.678Z,2.10
2018-03-28T03:44:38.766Z,2.03
2018-03-28T03:47:05.879Z,2.43
2018-03-28T03:49:33.947Z,2.03
2018-03-28T03:52:01.828Z,1.97
2018-03-28T03:54:29.718Z,2.20
2018-03-28T03:56:56.877Z,2.10
2018-03-28T03:59:24.028Z,2.20
2018-03-28T04:01:51.176Z,2.03
2018-03-28T04:04:18.322Z,2.10
2018-03-28T04:06:45.394Z,2.00
2018-03-28T04:09:12.505Z,2.17
2018-03-28T04:11:39.656Z,2.10
2018-03-28T04:14:06.736Z,2.00
2018-03-28T04:16:33.814Z,2.10
2018-03-28T04:19:00.910Z,2.10
2018-03-28T04:21:28.012Z,2.10
2018-03-28T04:23:55.888Z,1.93
2018-03-28T04:26:23.044Z,1.90
2018-03-28T04:28:50.189Z,1.90
2018-03-28T04:31:17.292Z,1.87
2018-03-28T04:33:44.490Z,2.10
2018-03-28T04:36:11.559Z,1.97
2018-03-28T04:38:39.405Z,2.40
2018-03-28T04:41:06.529Z,2.03
2018-03-28T04:43:33.659Z,1.90
2018-03-28T04:46:00.741Z,2.00
2018-03-28T04:48:28.606Z,2.50
2018-03-28T04:50:56.519Z,2.03
2018-03-28T04:53:23.630Z,1.90
2018-03-28T04:55:51.560Z,1.87
2018-03-28T04:58:18.790Z,2.20
2018-03-28T05:00:45.920Z,2.10
2018-03-28T05:03:13.025Z,2.50
2018-03-28T05:05:40.894Z,2.23
2018-03-28T05:08:08.793Z,2.13
2018-03-28T05:10:35.902Z,3.17
2018-03-28T05:13:03.809Z,2.50
2018-03-28T05:15:30.930Z,2.27
2018-03-28T05:17:58.065Z,2.30
2018-03-28T05:20:25.143Z,2.47
2018-03-28T05:22:52.268Z,2.00
2018-03-28T05:25:19.359Z,2.50
2018-03-28T05:27:46.457Z,2.17
2018-03-28T05:30:13.659Z,2.40
2018-03-28T05:32:40.759Z,2.37
2018-03-28T05:35:07.957Z,1.90
2018-03-28T05:37:35.462Z,1.83
2018-03-28T05:40:02.713Z,2.60
2018-03-28T05:42:29.798Z,2.27
2018-03-28T05:44:57.696Z,3.03
2018-03-28T05:47:24.787Z,2.73
2018-03-28T05:49:51.863Z,2.53
2018-03-28T05:52:18.942Z,2.60
2018-03-28T05:54:46.040Z,2.23
2018-03-28T05:57:13.128Z,2.90
2018-03-28T05:59:40.268Z,2.87
2018-03-28T06:02:07.708Z,2.30
2018-03-28T06:04:34.810Z,2.73
2018-03-28T06:07:01.889Z,2.43
2018-03-28T06:09:29.018Z,2.73
2018-03-28T06:11:56.126Z,3.57
2018-03-28T06:14:23.216Z,5.80
2018-03-28T06:16:50.330Z,5.23
2018-03-28T06:19:17.436Z,6.77
2018-03-28T06:21:44.588Z,10.97
2018-03-28T06:24:11.725Z,13.70
2018-03-28T06:26:38.982Z,13.63
2018-03-28T06:29:06.099Z,16.40
2018-03-28T06:31:34.003Z,15.20
2018-03-28T06:34:01.086Z,13.97
2018-03-28T06:36:28.188Z,15.20
2018-03-28T06:38:55.304Z,15.67
2018-03-28T06:41:22.432Z,16.33
2018-03-28T06:43:52.473Z,16.47
2018-03-28T06:46:20.405Z,16.03
2018-03-28T06:48:47.539Z,16.57
2018-03-28T06:51:14.630Z,16.47
2018-03-28T06:53:41.738Z,15.60
2018-03-28T06:56:09.644Z,14.33
2018-03-28T06:58:36.744Z,14.60
2018-03-28T07:01:04.616Z,14.33
2018-03-28T07:03:32.510Z,13.80
2018-03-28T07:06:00.386Z,14.30
2018-03-28T07:08:27.615Z,14.00
2018-03-28T07:10:54.760Z,14.80
2018-03-28T07:13:21.912Z,14.13
2018-03-28T07:15:49.013Z,14.30
2018-03-28T07:18:16.916Z,15.87
2018-03-28T07:20:44.018Z,14.07
2018-03-28T07:23:11.326Z,13.10
2018-03-28T07:25:38.470Z,14.90
2018-03-28T07:28:05.549Z,13.63
2018-03-28T07:30:32.626Z,12.87
2018-03-28T07:32:59.712Z,13.10
2018-03-28T07:35:26.830Z,12.70
2018-03-28T07:37:53.937Z,13.43
2018-03-28T07:40:21.088Z,12.07
2018-03-28T07:42:48.194Z,11.00
2018-03-28T07:45:16.072Z,11.77
2018-03-28T07:47:43.932Z,11.97
2018-03-28T07:50:11.128Z,11.10
2018-03-28T07:52:38.284Z,9.57
2018-03-28T07:55:05.409Z,9.40
2018-03-28T07:57:32.645Z,10.73
2018-03-28T07:59:59.744Z,8.90
2018-03-28T08:02:26.857Z,9.97
2018-03-28T08:04:53.939Z,9.17
2018-03-28T08:07:21.143Z,8.13
2018-03-28T08:09:48.228Z,9.33
2018-03-28T08:12:15.327Z,9.60
2018-03-28T08:14:42.430Z,8.80
2018-03-28T08:17:09.632Z,9.47
2018-03-28T08:19:37.538Z,8.33
2018-03-28T08:22:04.688Z,7.10
2018-03-28T08:24:31.845Z,7.93
2018-03-28T08:26:58.938Z,7.20
2018-03-28T08:29:26.094Z,6.90
2018-03-28T08:31:53.233Z,7.50
2018-03-28T08:34:20.360Z,6.20
2018-03-28T08:36:48.262Z,5.90
2018-03-28T08:39:15.370Z,7.00
2018-03-28T08:41:42.469Z,7.80
2018-03-28T08:44:09.553Z,6.73
2018-03-28T08:46:37.444Z,7.80
2018-03-28T08:49:04.560Z,7.57
2018-03-28T08:51:32.460Z,6.83
2018-03-28T08:53:59.573Z,7.33
2018-03-28T08:56:27.475Z,5.67
2018-03-28T08:58:55.330Z,4.40
2018-03-28T09:01:22.609Z,4.40
2018-03-28T09:03:49.719Z,5.13
2018-03-28T09:06:16.830Z,5.37
2018-03-28T09:08:43.917Z,5.47
2018-03-28T09:11:11.761Z,4.83
2018-03-28T09:13:38.894Z,5.63
2018-03-28T09:16:07.131Z,5.53
2018-03-28T09:18:34.238Z,6.07
2018-03-28T09:21:02.091Z,5.53
2018-03-28T09:23:29.961Z,5.57
2018-03-28T09:25:57.831Z,4.90
2018-03-28T09:28:24.962Z,4.43
2018-03-28T09:30:52.239Z,3.47
2018-03-28T09:33:19.333Z,3.30
2018-03-28T09:35:46.453Z,3.00
2018-03-28T09:38:13.653Z,2.80
2018-03-28T09:40:40.759Z,2.40
2018-03-28T09:43:07.880Z,2.70
2018-03-28T09:45:35.013Z,2.60
2018-03-28T09:48:02.122Z,2.20
2018-03-28T09:50:29.221Z,2.70
2018-03-28T09:52:56.327Z,2.20
2018-03-28T09:55:23.403Z,2.10
2018-03-28T09:57:50.616Z,2.70
2018-03-28T10:00:23.136Z,2.57
2018-03-28T10:02:50.037Z,2.43
2018-03-28T10:05:16.887Z,1.93
2018-03-28T10:07:43.982Z,2.50
2018-03-28T10:10:11.036Z,2.00
2018-03-28T10:12:37.918Z,2.67
2018-03-28T10:15:05.017Z,2.87
2018-03-28T10:17:32.882Z,2.90
2018-03-28T10:20:00.147Z,3.00
2018-03-28T10:22:28.786Z,2.93
2018-03-28T10:24:56.017Z,2.80
2018-03-28T10:27:23.901Z,3.03
2018-03-28T10:29:51.057Z,3.20
2018-03-28T10:32:18.411Z,3.13
2018-03-28T10:34:45.654Z,2.70
2018-03-28T10:37:12.870Z,2.80
2018-03-28T10:39:39.951Z,2.73
2018-03-28T10:42:07.170Z,2.80
2018-03-28T10:44:34.281Z,2.70
2018-03-28T10:47:01.396Z,2.90
2018-03-28T10:49:29.295Z,2.80
2018-03-28T10:51:56.448Z,2.73
2018-03-28T10:54:23.553Z,2.20
2018-03-28T10:56:50.708Z,2.93
2018-03-28T10:59:18.260Z,3.07
2018-03-28T11:01:45.344Z,2.40
2018-03-28T11:04:12.430Z,2.70
2018-03-28T11:06:40.292Z,2.73
2018-03-28T11:09:08.188Z,2.93
2018-03-28T11:11:35.286Z,2.67
2018-03-28T11:14:02.358Z,2.93
2018-03-28T11:16:29.478Z,3.00
2018-03-28T11:18:56.592Z,2.80
2018-03-28T11:21:24.496Z,2.77
2018-03-28T11:23:51.595Z,2.80
2018-03-28T11:26:18.710Z,2.60
2018-03-28T11:28:45.814Z,2.40
2018-03-28T11:31:12.913Z,2.50
2018-03-28T11:33:40.022Z,2.47
2018-03-28T11:36:07.224Z,2.77
2018-03-28T11:38:34.374Z,2.50
2018-03-28T11:41:01.484Z,2.27
2018-03-28T11:43:29.389Z,2.50
2018-03-28T11:45:56.555Z,2.50
2018-03-28T11:48:23.654Z,2.40
2018-03-28T11:50:50.803Z,1.97
2018-03-28T11:53:17.892Z,2.13
2018-03-28T11:55:45.104Z,2.30
2018-03-28T11:58:12.185Z,2.63
2018-03-28T12:00:39.399Z,2.57
2018-03-28T12:03:06.648Z,1.90
2018-03-28T12:05:33.801Z,2.30
2018-03-28T12:08:00.890Z,2.30
2018-03-28T12:10:28.013Z,2.10
2018-03-28T12:12:55.160Z,2.00
2018-03-28T12:15:22.591Z,2.00
2018-03-28T12:17:50.485Z,2.03
2018-03-28T12:20:17.574Z,2.30
2018-03-28T12:22:44.788Z,2.13
2018-03-28T12:25:11.888Z,2.00
2018-03-28T12:27:39.393Z,2.37
2018-03-28T12:30:07.453Z,2.40
2018-03-28T12:32:34.813Z,1.97
2018-03-28T12:35:01.959Z,2.13
2018-03-28T12:37:29.067Z,2.10
2018-03-28T12:39:56.203Z,2.00
2018-03-28T12:42:23.312Z,2.20
2018-03-28T12:44:51.219Z,1.90
2018-03-28T12:47:18.352Z,2.10
2018-03-28T12:49:45.665Z,2.13
2018-03-28T12:52:13.028Z,2.30
2018-03-28T12:54:40.237Z,1.90
2018-03-28T12:57:08.121Z,2.00
2018-03-28T12:59:35.283Z,1.90
2018-03-28T13:02:02.403Z,2.17
2018-03-28T13:04:30.288Z,2.00
2018-03-28T13:06:57.391Z,1.83
2018-03-28T13:09:24.594Z,1.90
2018-03-28T13:11:51.744Z,1.83
2018-03-28T13:14:18.841Z,1.80
2018-03-28T13:16:46.754Z,1.97
2018-03-28T13:19:13.859Z,1.60
2018-03-28T13:21:41.767Z,2.00
2018-03-28T13:24:08.918Z,1.60
2018-03-28T13:26:36.021Z,1.97
2018-03-28T13:29:03.112Z,1.60
2018-03-28T13:31:30.965Z,1.77
2018-03-28T13:33:58.267Z,1.97
2018-03-28T13:36:25.409Z,1.83
2018-03-28T13:38:52.501Z,1.80
2018-03-28T13:41:19.610Z,1.60
2018-03-28T13:43:46.763Z,1.60
2018-03-28T13:46:13.971Z,1.70
2018-03-28T13:48:41.066Z,1.70
2018-03-28T13:51:08.142Z,1.87
2018-03-28T13:53:35.314Z,1.80
2018-03-28T13:56:03.714Z,1.93
2018-03-28T13:58:30.939Z,1.90
2018-03-28T14:00:58.052Z,1.47
2018-03-28T14:03:25.937Z,1.67
2018-03-28T14:05:53.254Z,1.63
2018-03-28T14:08:21.158Z,2.53
2018-03-28T14:10:48.236Z,2.90
2018-03-28T14:13:15.456Z,3.30
2018-03-28T14:15:42.576Z,2.77
2018-03-28T14:18:09.729Z,2.77
2018-03-28T14:20:36.834Z,2.70
2018-03-28T14:23:04.730Z,2.90
2018-03-28T14:25:31.895Z,2.20
2018-03-28T14:27:59.023Z,2.03
2018-03-28T14:30:26.096Z,1.67
2018-03-28T14:32:53.194Z,1.97
2018-03-28T14:35:20.317Z,1.33
2018-03-28T14:37:47.440Z,1.70
2018-03-28T14:40:14.535Z,1.90
2018-03-28T14:42:41.655Z,1.50
2018-03-28T14:45:08.819Z,1.63
2018-03-28T14:47:36.974Z,1.20
2018-03-28T14:50:04.074Z,1.50
2018-03-28T14:52:31.947Z,1.60
2018-03-28T14:54:59.840Z,1.57
2018-03-28T14:57:26.932Z,1.60
2018-03-28T14:59:54.025Z,1.40
2018-03-28T15:02:21.134Z,1.67
2018-03-28T15:04:48.260Z,2.03
2018-03-28T15:07:16.142Z,1.50
2018-03-28T15:09:43.252Z,1.80
2018-03-28T15:12:10.349Z,1.63
2018-03-28T15:14:37.491Z,1.73
2018-03-28T15:17:04.587Z,2.03
2018-03-28T15:19:32.486Z,1.77
2018-03-28T15:21:59.638Z,1.77
2018-03-28T15:24:26.785Z,1.50
2018-03-28T15:26:53.890Z,1.50
2018-03-28T15:29:20.990Z,1.77
2018-03-28T15:31:48.143Z,2.00
2018-03-28T15:34:15.253Z,1.37
2018-03-28T15:36:42.405Z,1.77
2018-03-28T15:39:09.494Z,1.90
2018-03-28T15:41:36.650Z,2.00
2018-03-28T15:44:03.854Z,1.60
2018-03-28T15:46:31.772Z,1.80
2018-03-28T15:48:58.885Z,2.03
2018-03-28T15:51:26.738Z,1.70
2018-03-28T15:53:53.840Z,3.00
2018-03-28T15:56:20.926Z,1.90
2018-03-28T15:58:48.014Z,2.17
2018-03-28T16:01:15.871Z,1.43
2018-03-28T16:03:43.285Z,3.25
2018-03-28T16:06:10.371Z,2.47
2018-03-28T16:08:37.539Z,3.13
2018-03-28T16:11:04.682Z,3.07
2018-03-28T16:13:31.766Z,3.00
2018-03-28T16:15:58.872Z,2.97
2018-03-28T16:18:26.765Z,3.07
2018-03-28T16:20:53.922Z,2.73
2018-03-28T16:23:21.025Z,3.10
2018-03-28T16:25:48.910Z,2.90
2018-03-28T16:28:16.062Z,2.77
2018-03-28T16:30:43.150Z,3.30
2018-03-28T16:33:10.363Z,3.10
2018-03-28T16:35:37.460Z,3.57
2018-03-28T16:38:04.577Z,2.90
2018-03-28T16:40:32.480Z,3.47
2018-03-28T16:42:59.581Z,3.33
2018-03-28T16:45:26.776Z,3.20
2018-03-28T16:47:53.883Z,2.80
2018-03-28T16:50:21.184Z,2.60
2018-03-28T16:52:49.092Z,1.93
2018-03-28T16:55:16.248Z,2.23
2018-03-28T16:57:43.391Z,2.40
2018-03-28T17:00:10.470Z,2.60
2018-03-28T17:02:37.592Z,3.10
2018-03-28T17:05:04.673Z,3.00
2018-03-28T17:07:31.796Z,2.73
2018-03-28T17:09:59.000Z,2.83
2018-03-28T17:12:26.093Z,3.30
2018-03-28T17:14:53.298Z,2.90
2018-03-28T17:17:20.402Z,2.93
2018-03-28T17:19:47.820Z,3.03
2018-03-28T17:22:14.970Z,3.40
2018-03-28T17:24:42.093Z,2.50
2018-03-28T17:27:09.171Z,3.20
2018-03-28T17:29:36.284Z,4.00
2018-03-28T17:32:03.387Z,3.17
2018-03-28T17:34:30.495Z,3.40
2018-03-28T17:36:57.373Z,2.73
2018-03-28T17:39:24.219Z,2.47
2018-03-28T17:41:51.352Z,3.50
2018-03-28T17:44:18.441Z,3.70
2018-03-28T17:46:46.346Z,2.93
2018-03-28T17:49:13.507Z,3.40
2018-03-28T17:51:40.595Z,3.43
2018-03-28T17:54:07.683Z,4.30
2018-03-28T17:56:34.811Z,2.87
2018-03-28T17:59:02.004Z,3.60
2018-03-28T18:01:29.259Z,3.20
2018-03-28T18:03:56.401Z,2.60
2018-03-28T18:06:23.521Z,2.93
2018-03-28T18:08:50.671Z,3.03
2018-03-28T18:11:17.771Z,3.20
2018-03-28T18:13:45.628Z,3.53
2018-03-28T18:16:12.784Z,3.20
2018-03-28T18:18:40.051Z,2.70
2018-03-28T18:21:07.158Z,3.43
2018-03-28T18:23:35.073Z,2.13
2018-03-28T18:26:02.236Z,2.73
2018-03-28T18:28:29.356Z,2.60
2018-03-28T18:30:56.464Z,2.50
2018-03-28T18:33:24.372Z,2.73
2018-03-28T18:35:51.464Z,2.40
2018-03-28T18:38:18.556Z,2.63
2018-03-28T18:40:45.655Z,3.53
2018-03-28T18:43:12.797Z,2.70
2018-03-28T18:45:40.695Z,2.80
2018-03-28T18:48:07.835Z,3.10
2018-03-28T18:50:34.941Z,2.50
2018-03-28T18:53:02.059Z,2.47
2018-03-28T18:55:29.185Z,2.50
2018-03-28T18:57:56.336Z,2.73
2018-03-28T19:00:23.433Z,2.60
2018-03-28T19:02:50.536Z,2.53
2018-03-28T19:05:17.647Z,3.27
2018-03-28T19:07:44.855Z,2.53
2018-03-28T19:10:11.973Z,2.30
2018-03-28T19:12:39.872Z,2.30
2018-03-28T19:15:06.944Z,2.70
2018-03-28T19:17:34.008Z,2.83
2018-03-28T19:20:01.107Z,2.53
2018-03-28T19:22:28.214Z,2.20
2018-03-28T19:24:55.287Z,2.40
2018-03-28T19:27:22.333Z,2.23
2018-03-28T19:29:49.386Z,2.33
2018-03-28T19:32:16.530Z,2.10
2018-03-28T19:34:43.588Z,3.23
2018-03-28T19:37:10.707Z,2.77
2018-03-28T19:39:37.784Z,2.27
2018-03-28T19:42:04.923Z,2.07
2018-03-28T19:44:32.031Z,1.83
2018-03-28T19:46:59.118Z,2.37
2018-03-28T19:49:26.186Z,2.43
2018-03-28T19:51:54.047Z,2.83
2018-03-28T19:54:21.872Z,2.30
2018-03-28T19:56:48.930Z,2.23
2018-03-28T19:59:16.007Z,1.77
2018-03-28T20:01:43.122Z,2.03
2018-03-28T20:04:10.193Z,2.40
2018-03-28T20:06:37.309Z,2.50
2018-03-28T20:09:04.425Z,2.00
2018-03-28T20:11:32.284Z,1.93
2018-03-28T20:14:00.159Z,2.20
2018-03-28T20:16:27.279Z,2.47
2018-03-28T20:18:54.400Z,1.70
2018-03-28T20:21:21.554Z,2.40
2018-03-28T20:23:48.712Z,2.20
2018-03-28T20:26:15.860Z,2.63
2018-03-28T20:28:43.013Z,2.13
2018-03-28T20:31:10.126Z,2.00
2018-03-28T20:33:38.023Z,2.13
2018-03-28T20:36:06.264Z,2.70
2018-03-28T20:38:33.364Z,2.63
2018-03-28T20:41:00.482Z,1.87
2018-03-28T20:43:27.596Z,2.00
2018-03-28T20:45:54.700Z,2.17
2018-03-28T20:48:21.788Z,2.50
2018-03-28T20:50:48.924Z,1.67
2018-03-28T20:53:16.014Z,1.90
2018-03-28T20:55:43.885Z,1.57
2018-03-28T20:58:11.757Z,2.10
2018-03-28T21:00:39.631Z,2.00
2018-03-28T21:03:07.528Z,2.10
2018-03-28T21:05:34.679Z,1.83
2018-03-28T21:08:01.800Z,1.50
2018-03-28T21:10:28.927Z,2.03
2018-03-28T21:12:56.045Z,1.53
2018-03-28T21:15:23.901Z,1.80
2018-03-28T21:17:51.101Z,2.17
2018-03-28T21:20:18.204Z,1.93
2018-03-28T21:22:45.313Z,1.90
2018-03-28T21:25:13.374Z,2.30
2018-03-28T21:27:40.521Z,1.70
2018-03-28T21:30:07.604Z,1.60
2018-03-28T21:32:34.830Z,1.93
2018-03-28T21:35:01.945Z,1.83
2018-03-28T21:37:29.059Z,2.53
2018-03-28T21:39:56.942Z,2.30
2018-03-28T21:42:24.066Z,2.40
2018-03-28T21:44:51.950Z,3.10
2018-03-28T21:47:19.581Z,1.90
2018-03-28T21:49:46.732Z,2.47
2018-03-28T21:52:13.911Z,2.37
2018-03-28T21:54:41.046Z,2.27
2018-03-28T21:57:08.183Z,1.70
2018-03-28T21:59:35.334Z,2.70
2018-03-28T22:02:02.537Z,1.90
2018-03-28T22:04:30.391Z,2.80
2018-03-28T22:06:57.439Z,1.70
2018-03-28T22:09:24.521Z,2.23
2018-03-28T22:11:51.586Z,1.63
2018-03-28T22:14:18.643Z,1.90
2018-03-28T22:16:45.725Z,1.80
2018-03-28T22:19:12.989Z,2.00
2018-03-28T22:21:40.135Z,1.67
2018-03-28T22:24:06.958Z,1.87
2018-03-28T22:26:33.774Z,1.73
2018-03-28T22:29:00.846Z,1.63
2018-03-28T22:31:27.906Z,2.10
2018-03-28T22:33:56.530Z,1.87
2018-03-28T22:36:23.601Z,1.80
2018-03-28T22:38:50.667Z,1.77
2018-03-28T22:41:17.771Z,2.00
2018-03-28T22:43:44.830Z,1.87
2018-03-28T22:46:11.889Z,2.10
2018-03-28T22:48:38.949Z,1.80
2018-03-28T22:51:06.033Z,1.90
2018-03-28T22:53:33.198Z,1.70
2018-03-28T22:56:01.312Z,1.97
2018-03-28T22:58:28.578Z,1.40
2018-03-28T23:00:56.425Z,1.90
2018-03-28T23:03:23.509Z,1.40
2018-03-28T23:05:51.333Z,1.70
2018-03-28T23:08:19.234Z,1.37
2018-03-28T23:10:46.323Z,2.00
2018-03-28T23:13:13.399Z,1.90
2018-03-28T23:15:41.269Z,1.67
2018-03-28T23:18:08.357Z,1.57
2018-03-28T23:20:35.405Z,1.30
2018-03-28T23:23:02.524Z,1.30
2018-03-28T23:25:29.571Z,1.70
2018-03-28T23:27:56.618Z,1.73
2018-03-28T23:30:23.695Z,1.93
2018-03-28T23:32:50.772Z,1.43
2018-03-28T23:35:18.601Z,1.63
2018-03-28T23:37:45.659Z,1.60
2018-03-28T23:40:12.793Z,1.60
2018-03-28T23:42:39.863Z,1.63
2018-03-28T23:45:06.933Z,1.57
2018-03-28T23:47:34.046Z,1.67
2018-03-28T23:50:01.947Z,1.53
2018-03-28T23:52:29.190Z,1.37
2018-03-28T23:54:56.290Z,1.87
2018-03-28T23:57:23.395Z,1.50
2018-03-28T23:59:51.254Z,1.53
